sensor_id;sensor_type;location;lat;lon;timestamp;temperature;humidity
11666;DHT22;5889;51.350;6.708;2024-03-08T00:02:19;4.40;99.90
11666;DHT22;5889;51.350;6.708;2024-03-08T00:04:46;4.40;99.90
11666;DHT22;5889;51.350;6.708;2024-03-08T00:07:13;4.40;99.90
11666;DHT22;5889;51.350;6.708;2024-03-08T00:09:40;4.30;99.90
11666;DHT22;5889;51.350;6.708;2024-03-08T00:12:08;4.30;99.90
11666;DHT22;5889;51.350;6.708;2024-03-08T00:14:36;4.30;99.90
11666;DHT22;5889;51.350;6.708;2024-03-08T00:17:04;4.20;99.90
11666;DHT22;5889;51.350;6.708;2024-03-08T00:19:31;4.20;99.90
11666;DHT22;5889;51.350;6.708;2024-03-08T00:21:58;4.20;99.90
11666;DHT22;5889;51.350;6.708;2024-03-08T00:24:26;4.20;99.90
11666;DHT22;5889;51.350;6.708;2024-03-08T00:26:54;4.10;99.90
11666;DHT22;5889;51.350;6.708;2024-03-08T00:29:22;4.10;99.90
11666;DHT22;5889;51.350;6.708;2024-03-08T00:31:49;4.10;99.90
11666;DHT22;5889;51.350;6.708;2024-03-08T00:34:16;4.10;99.90
11666;DHT22;5889;51.350;6.708;2024-03-08T00:36:43;4.00;99.90
11666;DHT22;5889;51.350;6.708;2024-03-08T00:39:10;4.00;99.90
11666;DHT22;5889;51.350;6.708;2024-03-08T00:41:37;4.00;99.90
11666;DHT22;5889;51.350;6.708;2024-03-08T00:44:04;3.90;99.90
11666;DHT22;5889;51.350;6.708;2024-03-08T00:46:32;3.90;99.90
11666;DHT22;5889;51.350;6.708;2024-03-08T00:48:59;3.80;99.90
11666;DHT22;5889;51.350;6.708;2024-03-08T00:51:26;3.80;99.90
11666;DHT22;5889;51.350;6.708;2024-03-08T00:53:53;3.80;99.90
11666;DHT22;5889;51.350;6.708;2024-03-08T00:56:20;3.70;99.90
11666;DHT22;5889;51.350;6.708;2024-03-08T00:58:47;3.70;99.90
11666;DHT22;5889;51.350;6.708;2024-03-08T01:01:14;3.70;99.90
11666;DHT22;5889;51.350;6.708;2024-03-08T01:03:44;3.70;99.90
11666;DHT22;5889;51.350;6.708;2024-03-08T01:06:11;3.60;99.90
11666;DHT22;5889;51.350;6.708;2024-03-08T01:08:38;3.60;99.90
11666;DHT22;5889;51.350;6.708;2024-03-08T01:11:07;3.60;99.90
11666;DHT22;5889;51.350;6.708;2024-03-08T01:13:34;3.60;99.90
11666;DHT22;5889;51.350;6.708;2024-03-08T01:16:01;3.50;99.90
11666;DHT22;5889;51.350;6.708;2024-03-08T01:18:29;3.40;99.90
11666;DHT22;5889;51.350;6.708;2024-03-08T01:20:57;3.40;99.90
11666;DHT22;5889;51.350;6.708;2024-03-08T01:23:24;3.30;99.90
11666;DHT22;5889;51.350;6.708;2024-03-08T01:25:51;3.30;99.90
11666;DHT22;5889;51.350;6.708;2024-03-08T01:28:22;3.20;99.90
11666;DHT22;5889;51.350;6.708;2024-03-08T01:30:49;3.20;99.90
11666;DHT22;5889;51.350;6.708;2024-03-08T01:33:21;3.20;99.90
11666;DHT22;5889;51.350;6.708;2024-03-08T01:35:48;3.10;99.90
11666;DHT22;5889;51.350;6.708;2024-03-08T01:38:16;3.10;99.90
11666;DHT22;5889;51.350;6.708;2024-03-08T01:40:43;3.10;99.90
11666;DHT22;5889;51.350;6.708;2024-03-08T01:43:18;3.00;99.90
11666;DHT22;5889;51.350;6.708;2024-03-08T01:45:45;3.00;99.90
11666;DHT22;5889;51.350;6.708;2024-03-08T01:48:13;3.00;99.90
11666;DHT22;5889;51.350;6.708;2024-03-08T01:50:40;3.00;99.90
11666;DHT22;5889;51.350;6.708;2024-03-08T01:53:07;3.00;99.90
11666;DHT22;5889;51.350;6.708;2024-03-08T01:55:37;3.00;99.90
11666;DHT22;5889;51.350;6.708;2024-03-08T01:58:05;3.00;99.90
11666;DHT22;5889;51.350;6.708;2024-03-08T02:00:33;2.90;99.90
11666;DHT22;5889;51.350;6.708;2024-03-08T02:03:00;2.90;99.90
11666;DHT22;5889;51.350;6.708;2024-03-08T02:05:28;2.90;99.90
11666;DHT22;5889;51.350;6.708;2024-03-08T02:07:55;2.90;99.90
11666;DHT22;5889;51.350;6.708;2024-03-08T02:10:22;2.90;99.90
11666;DHT22;5889;51.350;6.708;2024-03-08T02:12:51;2.80;99.90
11666;DHT22;5889;51.350;6.708;2024-03-08T02:15:18;2.80;99.90
11666;DHT22;5889;51.350;6.708;2024-03-08T02:17:45;2.80;99.90
11666;DHT22;5889;51.350;6.708;2024-03-08T02:20:13;2.80;99.90
11666;DHT22;5889;51.350;6.708;2024-03-08T02:22:41;2.70;99.90
11666;DHT22;5889;51.350;6.708;2024-03-08T02:25:09;2.70;99.90
11666;DHT22;5889;51.350;6.708;2024-03-08T02:27:36;2.70;99.90
11666;DHT22;5889;51.350;6.708;2024-03-08T02:30:04;2.70;99.90
11666;DHT22;5889;51.350;6.708;2024-03-08T02:32:31;2.60;99.90
11666;DHT22;5889;51.350;6.708;2024-03-08T02:34:58;2.60;99.90
11666;DHT22;5889;51.350;6.708;2024-03-08T02:37:25;2.60;99.90
11666;DHT22;5889;51.350;6.708;2024-03-08T02:39:55;2.60;99.90
11666;DHT22;5889;51.350;6.708;2024-03-08T02:42:22;2.60;99.90
11666;DHT22;5889;51.350;6.708;2024-03-08T02:44:49;2.60;99.90
11666;DHT22;5889;51.350;6.708;2024-03-08T02:47:16;2.60;99.90
11666;DHT22;5889;51.350;6.708;2024-03-08T02:49:43;2.60;99.90
11666;DHT22;5889;51.350;6.708;2024-03-08T02:52:10;2.60;99.90
11666;DHT22;5889;51.350;6.708;2024-03-08T02:54:37;2.50;99.90
11666;DHT22;5889;51.350;6.708;2024-03-08T02:57:05;2.50;99.90
11666;DHT22;5889;51.350;6.708;2024-03-08T02:59:33;2.50;99.90
11666;DHT22;5889;51.350;6.708;2024-03-08T03:02:01;2.50;99.90
11666;DHT22;5889;51.350;6.708;2024-03-08T03:04:28;2.50;99.90
11666;DHT22;5889;51.350;6.708;2024-03-08T03:06:55;2.50;99.90
11666;DHT22;5889;51.350;6.708;2024-03-08T03:09:21;2.50;99.90
11666;DHT22;5889;51.350;6.708;2024-03-08T03:11:53;2.50;99.90
11666;DHT22;5889;51.350;6.708;2024-03-08T03:14:21;2.50;99.90
11666;DHT22;5889;51.350;6.708;2024-03-08T03:16:48;2.40;99.90
11666;DHT22;5889;51.350;6.708;2024-03-08T03:19:15;2.40;99.90
11666;DHT22;5889;51.350;6.708;2024-03-08T03:21:42;2.40;99.90
11666;DHT22;5889;51.350;6.708;2024-03-08T03:24:09;2.40;99.90
11666;DHT22;5889;51.350;6.708;2024-03-08T03:26:36;2.40;99.90
11666;DHT22;5889;51.350;6.708;2024-03-08T03:29:05;2.40;99.90
11666;DHT22;5889;51.350;6.708;2024-03-08T03:31:35;2.40;99.90
11666;DHT22;5889;51.350;6.708;2024-03-08T03:34:02;2.30;99.90
11666;DHT22;5889;51.350;6.708;2024-03-08T03:36:30;2.30;99.90
11666;DHT22;5889;51.350;6.708;2024-03-08T03:38:57;2.30;99.90
11666;DHT22;5889;51.350;6.708;2024-03-08T03:41:32;2.30;99.90
11666;DHT22;5889;51.350;6.708;2024-03-08T03:44:00;2.30;99.90
11666;DHT22;5889;51.350;6.708;2024-03-08T03:46:27;2.30;99.90
11666;DHT22;5889;51.350;6.708;2024-03-08T03:48:55;2.20;99.90
11666;DHT22;5889;51.350;6.708;2024-03-08T03:51:22;2.20;99.90
11666;DHT22;5889;51.350;6.708;2024-03-08T03:53:49;2.20;99.90
11666;DHT22;5889;51.350;6.708;2024-03-08T03:56:16;2.20;99.90
11666;DHT22;5889;51.350;6.708;2024-03-08T03:58:42;2.20;99.90
11666;DHT22;5889;51.350;6.708;2024-03-08T04:01:09;2.20;99.90
11666;DHT22;5889;51.350;6.708;2024-03-08T04:03:36;2.20;99.90
11666;DHT22;5889;51.350;6.708;2024-03-08T04:06:05;2.20;99.90
11666;DHT22;5889;51.350;6.708;2024-03-08T04:08:32;2.10;99.90
11666;DHT22;5889;51.350;6.708;2024-03-08T04:11:00;2.10;99.90
11666;DHT22;5889;51.350;6.708;2024-03-08T04:13:27;2.10;99.90
11666;DHT22;5889;51.350;6.708;2024-03-08T04:15:54;2.10;99.90
11666;DHT22;5889;51.350;6.708;2024-03-08T04:18:21;2.10;99.90
11666;DHT22;5889;51.350;6.708;2024-03-08T04:20:48;2.10;99.90
11666;DHT22;5889;51.350;6.708;2024-03-08T04:23:17;2.10;99.90
11666;DHT22;5889;51.350;6.708;2024-03-08T04:25:45;2.00;99.90
11666;DHT22;5889;51.350;6.708;2024-03-08T04:28:12;2.00;99.90
11666;DHT22;5889;51.350;6.708;2024-03-08T04:30:39;2.00;99.90
11666;DHT22;5889;51.350;6.708;2024-03-08T04:33:06;2.00;99.90
11666;DHT22;5889;51.350;6.708;2024-03-08T04:35:34;2.00;99.90
11666;DHT22;5889;51.350;6.708;2024-03-08T04:38:01;2.00;99.90
11666;DHT22;5889;51.350;6.708;2024-03-08T04:40:32;1.90;99.90
11666;DHT22;5889;51.350;6.708;2024-03-08T04:43:00;1.90;99.90
11666;DHT22;5889;51.350;6.708;2024-03-08T04:45:27;1.90;99.90
11666;DHT22;5889;51.350;6.708;2024-03-08T04:47:54;1.90;99.90
11666;DHT22;5889;51.350;6.708;2024-03-08T04:50:22;1.90;99.90
11666;DHT22;5889;51.350;6.708;2024-03-08T04:52:49;1.90;99.90
11666;DHT22;5889;51.350;6.708;2024-03-08T04:55:16;1.80;99.90
11666;DHT22;5889;51.350;6.708;2024-03-08T04:57:48;1.90;99.90
11666;DHT22;5889;51.350;6.708;2024-03-08T05:00:16;1.80;99.90
11666;DHT22;5889;51.350;6.708;2024-03-08T05:02:43;1.80;99.90
11666;DHT22;5889;51.350;6.708;2024-03-08T05:05:10;1.80;99.90
11666;DHT22;5889;51.350;6.708;2024-03-08T05:07:38;1.80;99.90
11666;DHT22;5889;51.350;6.708;2024-03-08T05:10:06;1.80;99.90
11666;DHT22;5889;51.350;6.708;2024-03-08T05:12:33;1.80;99.90
11666;DHT22;5889;51.350;6.708;2024-03-08T05:15:01;1.80;99.90
11666;DHT22;5889;51.350;6.708;2024-03-08T05:17:30;1.70;99.90
11666;DHT22;5889;51.350;6.708;2024-03-08T05:19:57;1.70;99.90
11666;DHT22;5889;51.350;6.708;2024-03-08T05:22:24;1.70;99.90
11666;DHT22;5889;51.350;6.708;2024-03-08T05:24:51;1.70;99.90
11666;DHT22;5889;51.350;6.708;2024-03-08T05:27:18;1.80;99.90
11666;DHT22;5889;51.350;6.708;2024-03-08T05:29:45;1.70;99.90
11666;DHT22;5889;51.350;6.708;2024-03-08T05:32:13;1.60;99.90
11666;DHT22;5889;51.350;6.708;2024-03-08T05:34:40;1.60;99.90
11666;DHT22;5889;51.350;6.708;2024-03-08T05:37:09;1.60;99.90
11666;DHT22;5889;51.350;6.708;2024-03-08T05:39:36;1.60;99.90
11666;DHT22;5889;51.350;6.708;2024-03-08T05:42:04;1.60;99.90
11666;DHT22;5889;51.350;6.708;2024-03-08T05:44:31;1.60;99.90
11666;DHT22;5889;51.350;6.708;2024-03-08T05:46:58;1.60;99.90
11666;DHT22;5889;51.350;6.708;2024-03-08T05:49:26;1.60;99.90
11666;DHT22;5889;51.350;6.708;2024-03-08T05:51:54;1.60;99.90
11666;DHT22;5889;51.350;6.708;2024-03-08T05:54:20;1.60;99.90
11666;DHT22;5889;51.350;6.708;2024-03-08T05:56:49;1.60;99.90
11666;DHT22;5889;51.350;6.708;2024-03-08T05:59:18;1.50;99.90
11666;DHT22;5889;51.350;6.708;2024-03-08T06:01:45;1.50;99.90
11666;DHT22;5889;51.350;6.708;2024-03-08T06:04:12;1.50;99.90
11666;DHT22;5889;51.350;6.708;2024-03-08T06:06:41;1.50;99.90
11666;DHT22;5889;51.350;6.708;2024-03-08T06:09:08;1.50;99.90
11666;DHT22;5889;51.350;6.708;2024-03-08T06:11:37;1.50;99.90
11666;DHT22;5889;51.350;6.708;2024-03-08T06:14:04;1.50;99.90
11666;DHT22;5889;51.350;6.708;2024-03-08T06:16:31;1.50;99.90
11666;DHT22;5889;51.350;6.708;2024-03-08T06:18:59;1.50;99.90
11666;DHT22;5889;51.350;6.708;2024-03-08T06:21:27;1.50;99.90
11666;DHT22;5889;51.350;6.708;2024-03-08T06:23:56;1.50;99.90
11666;DHT22;5889;51.350;6.708;2024-03-08T06:26:24;1.60;99.90
11666;DHT22;5889;51.350;6.708;2024-03-08T06:28:53;1.60;99.90
11666;DHT22;5889;51.350;6.708;2024-03-08T06:31:20;1.60;99.90
11666;DHT22;5889;51.350;6.708;2024-03-08T06:33:47;1.60;99.90
11666;DHT22;5889;51.350;6.708;2024-03-08T06:36:16;1.60;99.90
11666;DHT22;5889;51.350;6.708;2024-03-08T06:38:44;1.70;99.90
11666;DHT22;5889;51.350;6.708;2024-03-08T06:41:13;1.70;99.90
11666;DHT22;5889;51.350;6.708;2024-03-08T06:43:41;1.70;99.90
11666;DHT22;5889;51.350;6.708;2024-03-08T06:46:08;1.70;99.90
11666;DHT22;5889;51.350;6.708;2024-03-08T06:48:36;1.70;99.90
11666;DHT22;5889;51.350;6.708;2024-03-08T06:51:04;1.80;99.90
11666;DHT22;5889;51.350;6.708;2024-03-08T06:53:31;1.80;99.90
11666;DHT22;5889;51.350;6.708;2024-03-08T06:55:58;1.80;99.90
11666;DHT22;5889;51.350;6.708;2024-03-08T06:58:26;1.80;99.90
11666;DHT22;5889;51.350;6.708;2024-03-08T07:00:53;1.90;99.90
11666;DHT22;5889;51.350;6.708;2024-03-08T07:03:24;1.90;99.90
11666;DHT22;5889;51.350;6.708;2024-03-08T07:05:52;2.00;99.90
11666;DHT22;5889;51.350;6.708;2024-03-08T07:08:19;2.00;99.90
11666;DHT22;5889;51.350;6.708;2024-03-08T07:10:48;2.00;99.90
11666;DHT22;5889;51.350;6.708;2024-03-08T07:13:15;2.00;99.90
11666;DHT22;5889;51.350;6.708;2024-03-08T07:15:43;2.10;99.90
11666;DHT22;5889;51.350;6.708;2024-03-08T07:18:11;2.10;99.90
11666;DHT22;5889;51.350;6.708;2024-03-08T07:20:40;2.10;99.90
11666;DHT22;5889;51.350;6.708;2024-03-08T07:23:08;2.20;99.90
11666;DHT22;5889;51.350;6.708;2024-03-08T07:25:36;2.20;99.90
11666;DHT22;5889;51.350;6.708;2024-03-08T07:28:04;2.30;99.90
11666;DHT22;5889;51.350;6.708;2024-03-08T07:30:33;2.30;99.90
11666;DHT22;5889;51.350;6.708;2024-03-08T07:33:21;2.40;99.90
11666;DHT22;5889;51.350;6.708;2024-03-08T07:35:48;2.50;99.90
11666;DHT22;5889;51.350;6.708;2024-03-08T07:38:16;2.60;99.90
11666;DHT22;5889;51.350;6.708;2024-03-08T07:40:46;2.60;99.90
11666;DHT22;5889;51.350;6.708;2024-03-08T07:43:14;2.70;99.90
11666;DHT22;5889;51.350;6.708;2024-03-08T07:45:41;2.80;99.90
11666;DHT22;5889;51.350;6.708;2024-03-08T07:48:10;2.90;99.90
11666;DHT22;5889;51.350;6.708;2024-03-08T07:50:40;3.00;99.90
11666;DHT22;5889;51.350;6.708;2024-03-08T07:53:07;3.10;99.90
11666;DHT22;5889;51.350;6.708;2024-03-08T07:55:34;3.20;99.90
11666;DHT22;5889;51.350;6.708;2024-03-08T07:58:02;3.30;99.90
11666;DHT22;5889;51.350;6.708;2024-03-08T08:00:29;3.40;99.90
11666;DHT22;5889;51.350;6.708;2024-03-08T08:02:57;3.50;99.90
11666;DHT22;5889;51.350;6.708;2024-03-08T08:05:24;3.50;99.90
11666;DHT22;5889;51.350;6.708;2024-03-08T08:07:53;3.70;99.90
11666;DHT22;5889;51.350;6.708;2024-03-08T08:10:21;3.80;99.90
11666;DHT22;5889;51.350;6.708;2024-03-08T08:12:48;3.90;99.90
11666;DHT22;5889;51.350;6.708;2024-03-08T08:15:15;4.10;99.90
11666;DHT22;5889;51.350;6.708;2024-03-08T08:17:43;4.20;99.90
11666;DHT22;5889;51.350;6.708;2024-03-08T08:20:11;4.40;99.90
11666;DHT22;5889;51.350;6.708;2024-03-08T08:22:38;4.50;99.90
11666;DHT22;5889;51.350;6.708;2024-03-08T08:25:07;4.60;99.90
11666;DHT22;5889;51.350;6.708;2024-03-08T08:27:34;4.80;99.90
11666;DHT22;5889;51.350;6.708;2024-03-08T08:30:04;5.00;99.90
11666;DHT22;5889;51.350;6.708;2024-03-08T08:32:34;5.20;99.90
11666;DHT22;5889;51.350;6.708;2024-03-08T08:35:01;5.30;99.90
11666;DHT22;5889;51.350;6.708;2024-03-08T08:37:30;5.40;99.90
11666;DHT22;5889;51.350;6.708;2024-03-08T08:39:56;5.70;99.90
11666;DHT22;5889;51.350;6.708;2024-03-08T08:42:25;5.80;99.90
11666;DHT22;5889;51.350;6.708;2024-03-08T08:44:54;6.00;99.90
11666;DHT22;5889;51.350;6.708;2024-03-08T08:47:23;6.10;99.90
11666;DHT22;5889;51.350;6.708;2024-03-08T08:49:50;6.20;99.90
11666;DHT22;5889;51.350;6.708;2024-03-08T08:52:17;6.40;99.90
11666;DHT22;5889;51.350;6.708;2024-03-08T08:54:44;6.50;99.90
11666;DHT22;5889;51.350;6.708;2024-03-08T08:57:11;6.70;99.90
11666;DHT22;5889;51.350;6.708;2024-03-08T08:59:40;6.90;99.90
11666;DHT22;5889;51.350;6.708;2024-03-08T09:02:07;7.00;99.90
11666;DHT22;5889;51.350;6.708;2024-03-08T09:04:35;7.10;99.90
11666;DHT22;5889;51.350;6.708;2024-03-08T09:07:02;7.20;99.90
11666;DHT22;5889;51.350;6.708;2024-03-08T09:09:34;7.30;99.90
11666;DHT22;5889;51.350;6.708;2024-03-08T09:12:01;7.50;99.90
11666;DHT22;5889;51.350;6.708;2024-03-08T09:14:28;7.60;99.90
11666;DHT22;5889;51.350;6.708;2024-03-08T09:16:57;7.70;99.90
11666;DHT22;5889;51.350;6.708;2024-03-08T09:19:24;7.80;99.90
11666;DHT22;5889;51.350;6.708;2024-03-08T09:21:51;7.90;99.90
11666;DHT22;5889;51.350;6.708;2024-03-08T09:24:18;8.00;99.90
11666;DHT22;5889;51.350;6.708;2024-03-08T09:26:46;8.10;99.90
11666;DHT22;5889;51.350;6.708;2024-03-08T09:29:13;8.20;99.90
11666;DHT22;5889;51.350;6.708;2024-03-08T09:31:40;8.30;99.90
11666;DHT22;5889;51.350;6.708;2024-03-08T09:34:08;8.50;99.90
11666;DHT22;5889;51.350;6.708;2024-03-08T09:36:35;8.60;99.90
11666;DHT22;5889;51.350;6.708;2024-03-08T09:39:02;8.70;99.90
11666;DHT22;5889;51.350;6.708;2024-03-08T09:41:33;8.80;99.90
11666;DHT22;5889;51.350;6.708;2024-03-08T09:44:00;8.80;99.90
11666;DHT22;5889;51.350;6.708;2024-03-08T09:46:27;8.90;99.90
11666;DHT22;5889;51.350;6.708;2024-03-08T09:48:54;9.00;99.90
11666;DHT22;5889;51.350;6.708;2024-03-08T09:51:27;9.00;99.90
11666;DHT22;5889;51.350;6.708;2024-03-08T09:53:54;9.10;99.90
11666;DHT22;5889;51.350;6.708;2024-03-08T09:56:22;9.20;99.90
11666;DHT22;5889;51.350;6.708;2024-03-08T09:58:50;9.20;99.90
11666;DHT22;5889;51.350;6.708;2024-03-08T10:01:45;9.30;99.90
11666;DHT22;5889;51.350;6.708;2024-03-08T10:04:12;9.50;99.90
11666;DHT22;5889;51.350;6.708;2024-03-08T10:06:41;9.60;99.70
11666;DHT22;5889;51.350;6.708;2024-03-08T10:09:09;9.70;99.50
11666;DHT22;5889;51.350;6.708;2024-03-08T10:11:37;9.70;99.40
11666;DHT22;5889;51.350;6.708;2024-03-08T10:14:05;9.80;99.30
11666;DHT22;5889;51.350;6.708;2024-03-08T10:16:32;9.80;99.10
11666;DHT22;5889;51.350;6.708;2024-03-08T10:19:00;9.80;98.80
11666;DHT22;5889;51.350;6.708;2024-03-08T10:21:28;9.80;99.00
11666;DHT22;5889;51.350;6.708;2024-03-08T10:23:57;10.00;99.00
11666;DHT22;5889;51.350;6.708;2024-03-08T10:26:25;10.00;98.80
11666;DHT22;5889;51.350;6.708;2024-03-08T10:28:52;10.00;98.20
11666;DHT22;5889;51.350;6.708;2024-03-08T10:31:19;10.10;98.40
11666;DHT22;5889;51.350;6.708;2024-03-08T10:33:47;10.20;98.10
11666;DHT22;5889;51.350;6.708;2024-03-08T10:36:15;10.20;97.60
11666;DHT22;5889;51.350;6.708;2024-03-08T10:38:43;10.20;97.60
11666;DHT22;5889;51.350;6.708;2024-03-08T10:41:14;10.20;97.60
11666;DHT22;5889;51.350;6.708;2024-03-08T10:43:57;10.30;97.50
11666;DHT22;5889;51.350;6.708;2024-03-08T10:46:42;10.40;97.60
11666;DHT22;5889;51.350;6.708;2024-03-08T10:49:16;10.50;97.50
11666;DHT22;5889;51.350;6.708;2024-03-08T10:51:44;10.50;97.60
11666;DHT22;5889;51.350;6.708;2024-03-08T10:54:14;10.70;97.20
11666;DHT22;5889;51.350;6.708;2024-03-08T10:56:44;10.70;97.20
11666;DHT22;5889;51.350;6.708;2024-03-08T10:59:12;10.70;96.30
11666;DHT22;5889;51.350;6.708;2024-03-08T11:01:39;10.70;96.60
11666;DHT22;5889;51.350;6.708;2024-03-08T11:04:06;10.70;96.40
11666;DHT22;5889;51.350;6.708;2024-03-08T11:06:42;10.80;96.60
11666;DHT22;5889;51.350;6.708;2024-03-08T11:09:27;10.80;96.50
11666;DHT22;5889;51.350;6.708;2024-03-08T11:12:21;10.80;95.90
11666;DHT22;5889;51.350;6.708;2024-03-08T11:14:52;10.80;95.90
11666;DHT22;5889;51.350;6.708;2024-03-08T11:17:39;10.90;96.30
11666;DHT22;5889;51.350;6.708;2024-03-08T11:20:10;10.90;96.40
11666;DHT22;5889;51.350;6.708;2024-03-08T11:22:41;11.00;96.10
11666;DHT22;5889;51.350;6.708;2024-03-08T11:25:31;11.00;96.20
11666;DHT22;5889;51.350;6.708;2024-03-08T11:28:09;11.00;95.90
11666;DHT22;5889;51.350;6.708;2024-03-08T11:30:36;11.00;95.50
11666;DHT22;5889;51.350;6.708;2024-03-08T11:33:05;11.00;95.40
11666;DHT22;5889;51.350;6.708;2024-03-08T11:35:35;11.00;96.10
11666;DHT22;5889;51.350;6.708;2024-03-08T11:38:03;11.10;95.90
11666;DHT22;5889;51.350;6.708;2024-03-08T11:40:30;11.10;95.70
11666;DHT22;5889;51.350;6.708;2024-03-08T11:42:58;11.20;95.30
11666;DHT22;5889;51.350;6.708;2024-03-08T11:45:29;11.20;95.30
11666;DHT22;5889;51.350;6.708;2024-03-08T11:47:56;11.20;95.30
11666;DHT22;5889;51.350;6.708;2024-03-08T11:50:23;11.20;95.50
11666;DHT22;5889;51.350;6.708;2024-03-08T11:52:50;11.30;95.90
11666;DHT22;5889;51.350;6.708;2024-03-08T11:55:17;11.50;95.80
11666;DHT22;5889;51.350;6.708;2024-03-08T11:57:45;11.50;95.00
11666;DHT22;5889;51.350;6.708;2024-03-08T12:00:16;11.60;95.30
11666;DHT22;5889;51.350;6.708;2024-03-08T12:03:02;11.60;95.10
11666;DHT22;5889;51.350;6.708;2024-03-08T12:05:29;11.50;94.70
11666;DHT22;5889;51.350;6.708;2024-03-08T12:07:57;11.60;94.90
11666;DHT22;5889;51.350;6.708;2024-03-08T12:10:24;11.60;94.80
11666;DHT22;5889;51.350;6.708;2024-03-08T12:12:52;11.60;94.90
11666;DHT22;5889;51.350;6.708;2024-03-08T12:15:21;11.60;94.80
11666;DHT22;5889;51.350;6.708;2024-03-08T12:17:49;11.70;95.40
11666;DHT22;5889;51.350;6.708;2024-03-08T12:20:19;11.70;95.10
11666;DHT22;5889;51.350;6.708;2024-03-08T12:22:48;11.80;94.60
11666;DHT22;5889;51.350;6.708;2024-03-08T12:25:15;11.90;95.00
11666;DHT22;5889;51.350;6.708;2024-03-08T12:27:43;11.90;94.60
11666;DHT22;5889;51.350;6.708;2024-03-08T12:30:18;12.00;95.00
11666;DHT22;5889;51.350;6.708;2024-03-08T12:32:48;12.00;94.70
11666;DHT22;5889;51.350;6.708;2024-03-08T12:35:19;12.00;94.70
11666;DHT22;5889;51.350;6.708;2024-03-08T12:37:48;12.00;94.30
11666;DHT22;5889;51.350;6.708;2024-03-08T12:40:17;12.00;93.90
11666;DHT22;5889;51.350;6.708;2024-03-08T12:42:44;12.10;94.20
11666;DHT22;5889;51.350;6.708;2024-03-08T12:45:13;12.20;94.00
11666;DHT22;5889;51.350;6.708;2024-03-08T12:47:40;12.20;94.20
11666;DHT22;5889;51.350;6.708;2024-03-08T12:50:09;12.30;94.30
11666;DHT22;5889;51.350;6.708;2024-03-08T12:52:38;12.30;94.10
11666;DHT22;5889;51.350;6.708;2024-03-08T12:55:08;12.30;93.70
11666;DHT22;5889;51.350;6.708;2024-03-08T12:57:35;12.40;93.90
11666;DHT22;5889;51.350;6.708;2024-03-08T13:00:04;12.40;93.40
11666;DHT22;5889;51.350;6.708;2024-03-08T13:02:38;12.40;93.60
11666;DHT22;5889;51.350;6.708;2024-03-08T13:05:06;12.40;93.80
11666;DHT22;5889;51.350;6.708;2024-03-08T13:07:35;12.40;93.50
11666;DHT22;5889;51.350;6.708;2024-03-08T13:10:06;12.40;93.40
11666;DHT22;5889;51.350;6.708;2024-03-08T13:12:34;12.50;94.00
11666;DHT22;5889;51.350;6.708;2024-03-08T13:15:04;12.50;93.40
11666;DHT22;5889;51.350;6.708;2024-03-08T13:17:31;12.50;93.50
11666;DHT22;5889;51.350;6.708;2024-03-08T13:19:58;12.50;93.50
11666;DHT22;5889;51.350;6.708;2024-03-08T13:22:25;12.60;93.70
11666;DHT22;5889;51.350;6.708;2024-03-08T13:24:53;12.60;93.40
11666;DHT22;5889;51.350;6.708;2024-03-08T13:27:22;12.70;93.60
11666;DHT22;5889;51.350;6.708;2024-03-08T13:29:50;12.70;93.10
11666;DHT22;5889;51.350;6.708;2024-03-08T13:32:17;12.80;93.20
11666;DHT22;5889;51.350;6.708;2024-03-08T13:34:46;12.80;93.10
11666;DHT22;5889;51.350;6.708;2024-03-08T13:37:16;12.80;93.40
11666;DHT22;5889;51.350;6.708;2024-03-08T13:39:43;12.80;93.30
11666;DHT22;5889;51.350;6.708;2024-03-08T13:42:11;12.80;93.50
11666;DHT22;5889;51.350;6.708;2024-03-08T13:44:43;12.90;93.40
11666;DHT22;5889;51.350;6.708;2024-03-08T13:47:11;12.90;93.10
11666;DHT22;5889;51.350;6.708;2024-03-08T13:49:39;12.90;93.10
11666;DHT22;5889;51.350;6.708;2024-03-08T13:52:06;12.90;93.10
11666;DHT22;5889;51.350;6.708;2024-03-08T13:54:34;12.90;92.70
11666;DHT22;5889;51.350;6.708;2024-03-08T13:57:01;12.90;92.80
11666;DHT22;5889;51.350;6.708;2024-03-08T13:59:29;12.90;92.70
11666;DHT22;5889;51.350;6.708;2024-03-08T14:01:59;12.90;93.10
11666;DHT22;5889;51.350;6.708;2024-03-08T14:04:27;12.90;92.80
11666;DHT22;5889;51.350;6.708;2024-03-08T14:06:54;12.80;92.50
11666;DHT22;5889;51.350;6.708;2024-03-08T14:09:27;12.80;92.40
11666;DHT22;5889;51.350;6.708;2024-03-08T14:11:54;12.90;92.80
11666;DHT22;5889;51.350;6.708;2024-03-08T14:14:21;12.90;92.50
11666;DHT22;5889;51.350;6.708;2024-03-08T14:16:49;13.00;92.60
11666;DHT22;5889;51.350;6.708;2024-03-08T14:19:20;12.90;91.80
11666;DHT22;5889;51.350;6.708;2024-03-08T14:21:46;12.90;92.00
11666;DHT22;5889;51.350;6.708;2024-03-08T14:24:15;12.90;92.60
11666;DHT22;5889;51.350;6.708;2024-03-08T14:26:42;12.90;92.50
11666;DHT22;5889;51.350;6.708;2024-03-08T14:29:09;13.00;92.50
11666;DHT22;5889;51.350;6.708;2024-03-08T14:31:37;13.00;92.60
11666;DHT22;5889;51.350;6.708;2024-03-08T14:34:04;13.10;92.50
11666;DHT22;5889;51.350;6.708;2024-03-08T14:36:34;13.10;92.00
11666;DHT22;5889;51.350;6.708;2024-03-08T14:39:01;13.10;92.50
11666;DHT22;5889;51.350;6.708;2024-03-08T14:41:28;13.10;92.90
11666;DHT22;5889;51.350;6.708;2024-03-08T14:43:55;13.10;92.00
11666;DHT22;5889;51.350;6.708;2024-03-08T14:46:23;13.10;91.90
11666;DHT22;5889;51.350;6.708;2024-03-08T14:48:50;13.00;91.70
11666;DHT22;5889;51.350;6.708;2024-03-08T14:51:17;13.00;92.00
11666;DHT22;5889;51.350;6.708;2024-03-08T14:53:48;13.00;91.80
11666;DHT22;5889;51.350;6.708;2024-03-08T14:56:15;13.00;91.80
11666;DHT22;5889;51.350;6.708;2024-03-08T14:58:43;13.00;92.20
11666;DHT22;5889;51.350;6.708;2024-03-08T15:01:10;13.00;92.40
11666;DHT22;5889;51.350;6.708;2024-03-08T15:03:39;13.10;92.60
11666;DHT22;5889;51.350;6.708;2024-03-08T15:06:06;13.10;92.20
11666;DHT22;5889;51.350;6.708;2024-03-08T15:08:35;13.00;92.30
11666;DHT22;5889;51.350;6.708;2024-03-08T15:11:04;13.00;92.10
11666;DHT22;5889;51.350;6.708;2024-03-08T15:13:32;13.00;92.60
11666;DHT22;5889;51.350;6.708;2024-03-08T15:16:07;12.90;91.90
11666;DHT22;5889;51.350;6.708;2024-03-08T15:18:40;12.90;92.40
11666;DHT22;5889;51.350;6.708;2024-03-08T15:21:12;12.90;92.30
11666;DHT22;5889;51.350;6.708;2024-03-08T15:23:43;12.80;92.00
11666;DHT22;5889;51.350;6.708;2024-03-08T15:26:16;12.80;92.70
11666;DHT22;5889;51.350;6.708;2024-03-08T15:28:43;12.80;92.70
11666;DHT22;5889;51.350;6.708;2024-03-08T15:31:11;12.80;92.40
11666;DHT22;5889;51.350;6.708;2024-03-08T15:33:39;12.80;92.50
11666;DHT22;5889;51.350;6.708;2024-03-08T15:36:09;12.70;92.70
11666;DHT22;5889;51.350;6.708;2024-03-08T15:38:37;12.70;92.80
11666;DHT22;5889;51.350;6.708;2024-03-08T15:41:04;12.70;92.80
11666;DHT22;5889;51.350;6.708;2024-03-08T15:43:36;12.60;92.50
11666;DHT22;5889;51.350;6.708;2024-03-08T15:46:03;12.50;92.30
11666;DHT22;5889;51.350;6.708;2024-03-08T15:48:31;12.50;92.30
11666;DHT22;5889;51.350;6.708;2024-03-08T15:50:59;12.40;92.40
11666;DHT22;5889;51.350;6.708;2024-03-08T15:53:28;12.30;92.60
11666;DHT22;5889;51.350;6.708;2024-03-08T15:55:56;12.20;92.90
11666;DHT22;5889;51.350;6.708;2024-03-08T15:58:24;12.20;93.10
11666;DHT22;5889;51.350;6.708;2024-03-08T16:00:52;12.20;93.40
11666;DHT22;5889;51.350;6.708;2024-03-08T16:03:21;12.10;93.40
11666;DHT22;5889;51.350;6.708;2024-03-08T16:05:48;12.10;93.40